Perkinsville, Vermont
Current Conditions -  °F | °C
As of 3:53 PM on Friday 28 Nov 2014 (Local Time) from KLEB Reporting Station
Overcast Overcast  
Wind Chill: 21°   Ceiling: 4300
Heat Index: 28°   Visibility: 10mi
Dew Point: 19°   Wind: 7mph
Humidity: 69%   Direction: 350°N
Pressure: 30.08"   Gusts: NA
Location:  43.37°N, 72.51°W
Report Text: KLEB 282053Z 35006KT 10SM FEW033 BKN043 OVC055 M02/M07 A3008 RMK AO2 SNB1957E47 SLP197 P0000 60000 T10221072 53012
Loading
Personal Weather Stations






























Interactive Weather Map New forecast layout! Learn more

10-Day Weather Forecast

Advertisements
Track Severe Weather on mobile